KAFW METAR and TAF | Updated Today

KAFW METAR

Fort Worth Alliance Airport

Observation time: 4 min. ago

KAFW 302053Z 35009KT 10SM BKN270 10/M08 A3042 RMK AO2 SLP307 T01001078 55010

Need help? Read our tutorial on how to read METARs or read the parsed version below.

Fort Worth Alliance Airport (KAFW) METAR

  • Weather conditions on Wed, 30 Nov 2022 20:53:00 +0000 (4 min. ago):
  • Present conditions: Dry
  • Clouds: Broken sky at 8230 meters
  • Visibility: 16093 meters
  • Wind: 350 degrees at 9 knots
  • Temperature: 10 celsius
  • Dew point: -8 celsius
  • Pressure: 30.42 inHg
  • Remarks: AO2 SLP307 T01001078 55010


Useful to know...

KAFW TAF

Fort Worth Alliance Airport

KAFW 301720Z 3018/0118 02010KT P6SM FEW250 FM302300 04005KT P6SM SCT250 FM011200 12009KT P6SM BKN250
Observation time: 3:37 hr. ago
Need help? Read our tutorial on how to read TAFs or read the parsed version below.

Parsed version of TAF for Fort Worth Alliance Airport (KAFW)

  • From 30 November at 18:00 UTC, to day 01 of the month at 18:00 UTC
  • Clouds: A few at 7620 meters
  • Wind: 20 degrees at 10
  • From day 30 of the month at 23:00 UTC
  • Clouds: Scattered at 7620 meters
  • Wind: 40 degrees at 5
  • From day 1 of the month at 12:00 UTC
  • Clouds: Broken sky at 7620 meters
  • Wind: 120 degrees at 9